createdAt,value
2016-12-17T00:00:46.170Z,-1.91
2016-12-17T00:01:46.181Z,-2.06
2016-12-17T00:02:46.197Z,-1.95
2016-12-17T00:04:01.125Z,-1.94
2016-12-17T00:04:46.222Z,-2.02
2016-12-17T00:05:46.235Z,-1.9
2016-12-17T00:07:46.265Z,-2.05
2016-12-17T00:08:46.273Z,-2
2016-12-17T00:10:46.302Z,-2.05
2016-12-17T00:11:46.314Z,-2.13
2016-12-17T00:12:46.327Z,-2.12
2016-12-17T00:13:46.338Z,-2.16
2016-12-17T00:14:46.353Z,-2.2
2016-12-17T00:15:46.365Z,-2.13
2016-12-17T00:16:46.377Z,-2.08
2016-12-17T00:17:46.392Z,-2.1
2016-12-17T00:18:46.410Z,-2.21
2016-12-17T00:20:01.336Z,-2.27
2016-12-17T00:20:46.433Z,-2.35
2016-12-17T00:21:46.447Z,-2.18
2016-12-17T00:23:46.468Z,-2.13
2016-12-17T00:25:46.494Z,-2.12
2016-12-17T00:26:46.509Z,-2.26
2016-12-17T00:27:46.521Z,-2.09
2016-12-17T00:28:46.540Z,-2.18
2016-12-17T00:29:46.549Z,-2.06
2016-12-17T00:31:01.478Z,-2.1
2016-12-17T00:31:46.575Z,-2.2
2016-12-17T00:32:46.636Z,-2.3
2016-12-17T00:33:46.605Z,-2.39
2016-12-17T00:35:01.530Z,-2.29
2016-12-17T00:35:46.627Z,-2.43
2016-12-17T00:36:46.639Z,-2.32
2016-12-17T00:37:46.651Z,-2.29
2016-12-17T00:38:46.669Z,-2.37
2016-12-17T00:39:46.683Z,-2.16
2016-12-17T00:40:46.690Z,-2.1
2016-12-17T00:41:46.703Z,-2
2016-12-17T00:42:46.719Z,-2.08
2016-12-17T00:43:46.729Z,-2.13
2016-12-17T00:44:46.743Z,-2.26
2016-12-17T00:46:01.673Z,-2.39
2016-12-17T00:46:46.770Z,-2.3
2016-12-17T00:47:46.781Z,-2.2
2016-12-17T00:48:46.796Z,-2.13
2016-12-17T00:49:46.807Z,-2.21
2016-12-17T00:50:46.822Z,-2.13
2016-12-17T00:51:46.834Z,-2.16
2016-12-17T00:52:46.845Z,-2.2
2016-12-17T00:53:46.858Z,-2.18
2016-12-17T00:54:46.872Z,-2.18
2016-12-17T00:56:46.900Z,-2.18
2016-12-17T00:57:46.911Z,-2.21
2016-12-17T00:58:46.975Z,-2.3
2016-12-17T00:59:46.936Z,-2.13
2016-12-17T01:00:47.050Z,-2.26
2016-12-17T01:02:01.880Z,-2.3
2016-12-17T01:03:01.892Z,-2.3
2016-12-17T01:03:46.987Z,-2.34
2016-12-17T01:04:47.054Z,-2.3
2016-12-17T01:05:47.015Z,-2.12
2016-12-17T01:07:01.943Z,-2.05
2016-12-17T01:07:47.041Z,-2.06
2016-12-17T01:08:47.054Z,-2.13
2016-12-17T01:09:47.066Z,-2.02
2016-12-17T01:10:47.078Z,-1.95
2016-12-17T01:11:47.093Z,-1.97
2016-12-17T01:12:47.110Z,-2.06
2016-12-17T01:13:47.121Z,-2.13
2016-12-17T01:14:47.127Z,-2.26
2016-12-17T01:15:47.148Z,-2.2
2016-12-17T01:16:47.185Z,-2.2
2016-12-17T01:18:02.085Z,-2.4
2016-12-17T01:18:47.180Z,-2.42
2016-12-17T01:19:47.199Z,-2.53
2016-12-17T01:20:47.208Z,-2.52
2016-12-17T01:21:47.219Z,-2.49
2016-12-17T01:23:02.149Z,-2.42
2016-12-17T01:23:47.243Z,-2.49
2016-12-17T01:24:47.257Z,-2.4
2016-12-17T01:25:47.267Z,-2.37
2016-12-17T01:26:47.283Z,-2.42
2016-12-17T01:27:47.295Z,-2.24
2016-12-17T01:28:47.310Z,-2.24
2016-12-17T01:29:47.322Z,-2.24
2016-12-17T01:30:47.335Z,-2.21
2016-12-17T01:31:47.344Z,-2.27
2016-12-17T01:32:47.359Z,-2.23
2016-12-17T01:33:47.369Z,-2.24
2016-12-17T01:35:02.300Z,-2.24
2016-12-17T01:35:47.395Z,-2.37
2016-12-17T01:36:47.408Z,-2.3
2016-12-17T01:37:47.426Z,-2.21
2016-12-17T01:39:02.660Z,-2.18
2016-12-17T01:39:47.447Z,-2.15
2016-12-17T01:40:47.460Z,-2.13
2016-12-17T01:41:47.499Z,-2.09
2016-12-17T01:43:47.498Z,-2.18
2016-12-17T01:46:47.537Z,-2.09
2016-12-17T01:47:47.550Z,-2.02
2016-12-17T01:48:47.566Z,-1.98
2016-12-17T01:49:47.575Z,-2.08
2016-12-17T01:50:47.590Z,-2.09
2016-12-17T01:51:47.628Z,-2.2
2016-12-17T01:52:47.618Z,-2.2
2016-12-17T01:53:47.627Z,-2.12
2016-12-17T01:55:02.558Z,-2.1
2016-12-17T01:55:47.652Z,-2.08
2016-12-17T01:56:47.665Z,-2.06
2016-12-17T01:57:47.678Z,-2.09
2016-12-17T01:58:47.691Z,-2
2016-12-17T02:01:47.731Z,-2.12
2016-12-17T02:02:47.742Z,-1.98
2016-12-17T02:03:47.754Z,-2.1
2016-12-17T02:04:47.767Z,-2.1
2016-12-17T02:05:47.785Z,-2.06
2016-12-17T02:06:48.093Z,-2.08
2016-12-17T02:07:47.808Z,-2.05
2016-12-17T02:08:48.126Z,-1.94
2016-12-17T02:10:02.752Z,-1.88
2016-12-17T02:10:47.846Z,-1.94
2016-12-17T02:11:47.908Z,-1.94
2016-12-17T02:12:47.872Z,-1.95
2016-12-17T02:13:47.885Z,-1.88
2016-12-17T02:14:47.901Z,-1.88
2016-12-17T02:15:47.910Z,-1.95
2016-12-17T02:16:47.926Z,-1.95
2016-12-17T02:17:47.935Z,-1.97
2016-12-17T02:18:47.950Z,-1.88
2016-12-17T02:19:48.012Z,-1.88
2016-12-17T02:20:47.976Z,-1.88
2016-12-17T02:21:47.987Z,-1.87
2016-12-17T02:22:48.000Z,-1.98
2016-12-17T02:23:48.014Z,-1.95
2016-12-17T02:24:48.027Z,-1.91
2016-12-17T02:25:48.040Z,-1.87
2016-12-17T02:26:48.052Z,-1.92
2016-12-17T02:27:48.066Z,-1.92
2016-12-17T02:28:48.079Z,-1.92
2016-12-17T02:29:48.089Z,-1.91
2016-12-17T02:31:03.025Z,-1.9
2016-12-17T02:31:48.117Z,-1.8
2016-12-17T02:32:48.131Z,-1.87
2016-12-17T02:33:48.143Z,-1.91
2016-12-17T02:34:48.154Z,-1.91
2016-12-17T02:35:48.174Z,-1.94
2016-12-17T02:36:48.186Z,-1.77
2016-12-17T02:38:03.112Z,-1.8
2016-12-17T02:38:48.205Z,-1.7
2016-12-17T02:39:48.249Z,-1.73
2016-12-17T02:40:48.230Z,-1.72
2016-12-17T02:42:03.160Z,-1.69
2016-12-17T02:42:48.257Z,-1.66
2016-12-17T02:43:48.273Z,-1.69
2016-12-17T02:44:48.281Z,-1.69
2016-12-17T02:45:48.294Z,-1.62
2016-12-17T02:47:48.323Z,-1.64
2016-12-17T02:49:48.351Z,-1.55
2016-12-17T02:50:48.359Z,-1.52
2016-12-17T02:51:48.372Z,-1.55
2016-12-17T02:52:48.389Z,-1.46
2016-12-17T02:53:48.400Z,-1.38
2016-12-17T02:54:48.418Z,-1.41
2016-12-17T02:55:48.423Z,-1.37
2016-12-17T02:56:48.442Z,-1.45
2016-12-17T02:58:03.368Z,-1.4
2016-12-17T02:58:48.466Z,-1.4
2016-12-17T02:59:48.479Z,-1.4
2016-12-17T03:00:48.492Z,-1.3
2016-12-17T03:01:48.502Z,-1.4
2016-12-17T03:02:48.519Z,-1.2
2016-12-17T03:03:48.559Z,-1.19
2016-12-17T03:05:48.558Z,-1.16
2016-12-17T03:06:48.618Z,-1.13
2016-12-17T03:08:03.500Z,-1.02
2016-12-17T03:09:03.511Z,-1.15
2016-12-17T03:09:48.610Z,-1.04
2016-12-17T03:10:48.622Z,-1.02
2016-12-17T03:11:48.634Z,-0.94
2016-12-17T03:12:48.648Z,-0.98
2016-12-17T03:14:03.577Z,-0.86
2016-12-17T03:14:48.674Z,-0.85
2016-12-17T03:15:48.694Z,-0.8
2016-12-17T03:16:48.700Z,-0.8
2016-12-17T03:17:48.740Z,-0.79
2016-12-17T03:18:48.725Z,-0.78
2016-12-17T03:19:48.738Z,-0.78
2016-12-17T03:21:48.767Z,-0.61
2016-12-17T03:22:48.779Z,-0.6
2016-12-17T03:23:48.792Z,-0.52
2016-12-17T03:24:48.805Z,-0.43
2016-12-17T03:25:48.820Z,-0.36
2016-12-17T03:26:48.832Z,-0.18
2016-12-17T03:27:48.846Z,-0.22
2016-12-17T03:28:48.857Z,-0.26
2016-12-17T03:30:03.789Z,-0.22
2016-12-17T03:30:48.909Z,-0.28
2016-12-17T03:31:48.898Z,-0.34
2016-12-17T03:33:48.927Z,-0.36
2016-12-17T03:34:48.938Z,-0.37
2016-12-17T03:35:48.981Z,-0.22
2016-12-17T03:36:48.966Z,-0.25
2016-12-17T03:37:48.986Z,-0.21
2016-12-17T03:39:03.913Z,-0.15
2016-12-17T03:39:49.007Z,-0.21
2016-12-17T03:40:49.057Z,-0.23
2016-12-17T03:41:49.034Z,-0.28
2016-12-17T03:42:49.046Z,-0.23
2016-12-17T03:43:49.061Z,-0.21
2016-12-17T03:45:03.993Z,-0.15
2016-12-17T03:45:49.090Z,-0.15
2016-12-17T03:46:49.109Z,-0.15
2016-12-17T03:47:49.116Z,-0.16
2016-12-17T03:48:49.130Z,-0.19
2016-12-17T03:49:49.154Z,-0.15
2016-12-17T03:50:49.462Z,-0.1
2016-12-17T03:51:49.171Z,-0.18
2016-12-17T03:52:49.185Z,-0.05
2016-12-17T03:53:49.199Z,-0.07
2016-12-17T03:54:49.209Z,-0.08
2016-12-17T03:55:49.232Z,-0.21
2016-12-17T03:56:49.240Z,-0.07
2016-12-17T03:57:49.254Z,-0.15
2016-12-17T03:58:49.266Z,-0.11
2016-12-17T03:59:49.622Z,-0.07
2016-12-17T04:00:49.298Z,-0.08
2016-12-17T04:01:49.308Z,-0.04
2016-12-17T04:02:49.321Z,-0.04
2016-12-17T04:03:49.335Z,-0.05
2016-12-17T04:04:49.348Z,0.03
2016-12-17T04:05:49.361Z,0
2016-12-17T04:06:49.374Z,0.04
2016-12-17T04:07:49.390Z,0.18
2016-12-17T04:08:49.405Z,0.18
2016-12-17T04:09:49.416Z,0.13
2016-12-17T04:10:49.437Z,0.2
2016-12-17T04:12:04.363Z,0.11
2016-12-17T04:13:04.376Z,0.14
2016-12-17T04:13:49.473Z,0.18
2016-12-17T04:14:49.485Z,0.2
2016-12-17T04:15:49.500Z,0.24
2016-12-17T04:17:04.431Z,0.31
2016-12-17T04:17:49.532Z,0.36
2016-12-17T04:18:49.545Z,0.26
2016-12-17T04:19:49.559Z,0.35
2016-12-17T04:20:49.569Z,0.33
2016-12-17T04:21:49.584Z,0.32
2016-12-17T04:22:49.598Z,0.33
2016-12-17T04:23:49.612Z,0.33
2016-12-17T04:24:49.627Z,0.31
2016-12-17T04:25:49.637Z,0.39
2016-12-17T04:26:49.653Z,0.39
2016-12-17T04:28:04.583Z,0.39
2016-12-17T04:28:49.680Z,0.42
2016-12-17T04:29:49.695Z,0.46
2016-12-17T04:30:49.710Z,0.44
2016-12-17T04:31:49.725Z,0.42
2016-12-17T04:33:04.653Z,0.53
2016-12-17T04:33:49.748Z,0.57
2016-12-17T04:34:49.763Z,0.65
2016-12-17T04:35:49.779Z,0.53
2016-12-17T04:36:49.792Z,0.5
2016-12-17T04:37:49.805Z,0.51
2016-12-17T04:38:49.817Z,0.55
2016-12-17T04:40:49.852Z,0.55
2016-12-17T04:41:49.861Z,0.65
2016-12-17T04:42:49.875Z,0.58
2016-12-17T04:43:49.889Z,0.57
2016-12-17T04:44:49.905Z,0.72
2016-12-17T04:45:49.916Z,0.6
2016-12-17T04:46:49.930Z,0.69
2016-12-17T04:47:49.946Z,0.7
2016-12-17T04:49:04.878Z,0.7
2016-12-17T04:49:49.972Z,0.76
2016-12-17T04:50:49.989Z,0.76
2016-12-17T04:51:50.003Z,0.69
2016-12-17T04:52:50.016Z,0.72
2016-12-17T04:53:50.028Z,0.66
2016-12-17T04:54:50.056Z,0.84
2016-12-17T04:55:50.058Z,0.73
2016-12-17T04:56:50.074Z,0.9
2016-12-17T04:57:50.087Z,0.91
2016-12-17T04:59:05.019Z,0.84
2016-12-17T04:59:50.113Z,0.88
2016-12-17T05:00:50.131Z,0.83
2016-12-17T05:01:50.142Z,0.94
2016-12-17T05:02:50.161Z,0.96
2016-12-17T05:03:50.486Z,0.86
2016-12-17T05:05:05.104Z,1
2016-12-17T05:05:50.199Z,0.98
2016-12-17T05:06:50.215Z,0.93
2016-12-17T05:07:50.228Z,0.86
2016-12-17T05:08:50.241Z,0.87
2016-12-17T05:10:05.180Z,0.84
2016-12-17T05:10:50.269Z,0.87
2016-12-17T05:12:05.205Z,0.83
2016-12-17T05:13:50.314Z,0.96
2016-12-17T05:14:50.325Z,0.83
2016-12-17T05:16:05.258Z,0.86
2016-12-17T05:16:50.355Z,0.87
2016-12-17T05:17:50.371Z,0.88
2016-12-17T05:18:50.384Z,0.87
2016-12-17T05:20:05.316Z,0.84
2016-12-17T05:20:50.464Z,0.87
2016-12-17T05:22:50.442Z,0.88
2016-12-17T05:23:50.460Z,0.84
2016-12-17T05:24:50.473Z,0.97
2016-12-17T05:25:50.483Z,0.96
2016-12-17T05:26:50.500Z,1.05
2016-12-17T05:28:50.532Z,0.93
2016-12-17T05:29:50.541Z,0.97
2016-12-17T05:31:05.473Z,1
2016-12-17T05:31:50.574Z,0.94
2016-12-17T05:33:05.500Z,0.98
2016-12-17T05:33:50.598Z,1.02
2016-12-17T05:34:50.615Z,1.04
2016-12-17T05:35:50.628Z,0.96
2016-12-17T05:36:50.642Z,0.98
2016-12-17T05:37:50.656Z,0.97
2016-12-17T05:38:50.672Z,1
2016-12-17T05:39:50.686Z,0.9
2016-12-17T05:40:50.699Z,1
2016-12-17T05:41:50.712Z,0.96
2016-12-17T05:43:05.649Z,0.94
2016-12-17T05:43:50.741Z,1.05
2016-12-17T05:44:50.757Z,1.05
2016-12-17T05:45:50.780Z,1.16
2016-12-17T05:47:05.703Z,1.05
2016-12-17T05:47:50.797Z,1
2016-12-17T05:48:50.817Z,1.06
2016-12-17T05:49:50.830Z,1.09
2016-12-17T05:50:50.844Z,1.16
2016-12-17T05:52:05.773Z,1.12
2016-12-17T05:52:50.872Z,1.16
2016-12-17T05:53:50.887Z,1.09
2016-12-17T05:54:50.899Z,1.09
2016-12-17T05:55:50.912Z,1.15
2016-12-17T05:56:50.933Z,1.14
2016-12-17T05:57:50.940Z,1.05
2016-12-17T06:00:50.985Z,1.11
2016-12-17T06:01:51.000Z,1.05
2016-12-17T06:03:05.931Z,1.09
2016-12-17T06:03:51.031Z,1.08
2016-12-17T06:04:51.041Z,0.97
2016-12-17T06:05:51.055Z,0.98
2016-12-17T06:06:51.072Z,1.11
2016-12-17T06:08:06.004Z,1.12
2016-12-17T06:08:51.103Z,1.04
2016-12-17T06:09:51.115Z,1.15
2016-12-17T06:10:51.128Z,1.11
2016-12-17T06:11:51.145Z,1.04
2016-12-17T06:12:51.158Z,1.18
2016-12-17T06:13:51.171Z,1.24
2016-12-17T06:14:51.185Z,1.2
2016-12-17T06:15:51.202Z,1.12
2016-12-17T06:16:51.216Z,1.06
2016-12-17T06:17:51.228Z,1.24
2016-12-17T06:18:51.251Z,1.12
2016-12-17T06:19:51.263Z,1.14
2016-12-17T06:20:51.276Z,1.09
2016-12-17T06:21:51.288Z,1.11
2016-12-17T06:22:51.305Z,1.11
2016-12-17T06:24:06.234Z,1.15
2016-12-17T06:24:51.340Z,1.2
2016-12-17T06:25:51.351Z,1.12
2016-12-17T06:26:51.361Z,1.15
2016-12-17T06:27:51.375Z,1.15
2016-12-17T06:29:51.407Z,1.16
2016-12-17T06:31:51.435Z,1.14
2016-12-17T06:32:51.447Z,1.14
2016-12-17T06:33:51.462Z,1.16
2016-12-17T06:34:51.475Z,1.2
2016-12-17T06:35:51.525Z,1.15
2016-12-17T06:36:51.509Z,1.14
2016-12-17T06:37:51.519Z,1.08
2016-12-17T06:38:51.537Z,1.2
2016-12-17T06:40:06.466Z,1.24
2016-12-17T06:40:51.564Z,1.18
2016-12-17T06:41:51.609Z,1.18
2016-12-17T06:42:51.592Z,1.15
2016-12-17T06:43:51.615Z,1.24
2016-12-17T06:44:51.621Z,1.12
2016-12-17T06:45:51.664Z,1.11
2016-12-17T06:46:51.652Z,1.15
2016-12-17T06:47:51.666Z,1.11
2016-12-17T06:48:51.678Z,1.15
2016-12-17T06:49:51.695Z,1.15
2016-12-17T06:51:06.625Z,1.14
2016-12-17T06:51:51.724Z,1.12
2016-12-17T06:52:51.738Z,1.09
2016-12-17T06:53:52.059Z,1.3
2016-12-17T06:55:06.685Z,1.24
2016-12-17T06:55:51.781Z,1.33
2016-12-17T06:56:51.796Z,1.33
2016-12-17T06:57:51.813Z,1.3
2016-12-17T06:58:51.827Z,1.34
2016-12-17T07:00:51.859Z,1.23
2016-12-17T07:01:51.867Z,1.15
2016-12-17T07:02:51.884Z,1.23
2016-12-17T07:03:51.898Z,1.29
2016-12-17T07:04:51.913Z,1.26
2016-12-17T07:05:51.930Z,1.24
2016-12-17T07:06:51.993Z,1.15
2016-12-17T07:07:51.957Z,1.29
2016-12-17T07:08:52.275Z,1.29
2016-12-17T07:09:52.000Z,1.15
2016-12-17T07:10:52.001Z,1.08
2016-12-17T07:11:52.066Z,1.15
2016-12-17T07:12:52.034Z,1.2
2016-12-17T07:14:52.062Z,1.26
2016-12-17T07:15:52.074Z,1.3
2016-12-17T07:16:52.091Z,1.23
2016-12-17T07:17:52.104Z,1.26
2016-12-17T07:18:52.115Z,1.23
2016-12-17T07:19:52.134Z,1.18
2016-12-17T07:20:52.458Z,1.11
2016-12-17T07:22:07.078Z,1.33
2016-12-17T07:23:07.093Z,1.14
2016-12-17T07:23:52.222Z,1.34
2016-12-17T07:24:52.206Z,1.33
2016-12-17T07:25:52.218Z,1.36
2016-12-17T07:27:07.153Z,1.27
2016-12-17T07:27:52.250Z,1.36
2016-12-17T07:28:52.264Z,1.33
2016-12-17T07:29:52.280Z,1.36
2016-12-17T07:30:52.292Z,1.33
2016-12-17T07:31:52.309Z,1.37
2016-12-17T07:32:52.323Z,1.33
2016-12-17T07:34:07.258Z,1.18
2016-12-17T07:34:52.351Z,1.29
2016-12-17T07:35:52.367Z,1.08
2016-12-17T07:36:52.381Z,1.15
2016-12-17T07:37:52.418Z,1.33
2016-12-17T07:38:52.719Z,1.15
2016-12-17T07:39:52.424Z,1.22
2016-12-17T07:40:52.440Z,1.3
2016-12-17T07:41:52.455Z,1.3
2016-12-17T07:43:07.385Z,1.36
2016-12-17T07:43:52.482Z,1.3
2016-12-17T07:44:52.499Z,1.33
2016-12-17T07:45:52.510Z,1.4
2016-12-17T07:46:52.525Z,1.34
2016-12-17T07:48:07.465Z,1.41
2016-12-17T07:48:52.553Z,1.4
2016-12-17T07:49:52.569Z,1.3
2016-12-17T07:50:52.585Z,1.44
2016-12-17T07:51:52.599Z,1.36
2016-12-17T07:52:52.614Z,1.42
2016-12-17T07:53:52.631Z,1.32
2016-12-17T07:54:52.645Z,1.29
2016-12-17T07:55:52.658Z,1.54
2016-12-17T07:56:52.673Z,1.42
2016-12-17T07:57:52.690Z,1.62
2016-12-17T07:59:07.619Z,1.41
2016-12-17T07:59:52.719Z,1.47
2016-12-17T08:00:52.730Z,1.59
2016-12-17T08:01:52.748Z,1.54
2016-12-17T08:02:52.763Z,1.55
2016-12-17T08:03:52.773Z,1.47
2016-12-17T08:04:52.793Z,1.5
2016-12-17T08:05:52.805Z,1.44
2016-12-17T08:06:52.820Z,1.54
2016-12-17T08:07:52.835Z,1.55
2016-12-17T08:08:52.848Z,1.58
2016-12-17T08:09:52.862Z,1.58
2016-12-17T08:10:52.909Z,1.52
2016-12-17T08:11:52.900Z,1.47
2016-12-17T08:12:52.908Z,1.6
2016-12-17T08:13:52.921Z,1.54
2016-12-17T08:15:07.856Z,1.55
2016-12-17T08:15:52.954Z,1.42
2016-12-17T08:16:52.969Z,1.47
2016-12-17T08:17:52.982Z,1.52
2016-12-17T08:19:53.019Z,1.54
2016-12-17T08:20:53.078Z,1.45
2016-12-17T08:21:53.040Z,1.4
2016-12-17T08:23:53.094Z,1.45
2016-12-17T08:24:53.085Z,1.3
2016-12-17T08:25:53.105Z,1.37
2016-12-17T08:26:53.115Z,1.3
2016-12-17T08:27:53.131Z,1.4
2016-12-17T08:28:53.145Z,1.51
2016-12-17T08:30:08.077Z,1.45
2016-12-17T08:30:53.175Z,1.42
2016-12-17T08:31:53.189Z,1.33
2016-12-17T08:32:53.205Z,1.37
2016-12-17T08:34:53.233Z,1.4
2016-12-17T08:35:53.247Z,1.33
2016-12-17T08:36:53.567Z,1.48
2016-12-17T08:37:53.277Z,1.6
2016-12-17T08:40:08.225Z,1.41
2016-12-17T08:41:08.240Z,1.34
2016-12-17T08:41:53.340Z,1.4
2016-12-17T08:42:53.351Z,1.41
2016-12-17T08:43:53.365Z,1.41
2016-12-17T08:44:53.381Z,1.42
2016-12-17T08:45:53.399Z,1.51
2016-12-17T08:46:53.412Z,1.52
2016-12-17T08:47:53.424Z,1.6
2016-12-17T08:48:53.445Z,1.54
2016-12-17T08:49:53.455Z,1.66
2016-12-17T08:50:53.469Z,1.6
2016-12-17T08:51:53.507Z,1.59
2016-12-17T08:52:53.507Z,1.42
2016-12-17T08:53:53.514Z,1.48
2016-12-17T08:54:53.531Z,1.45
2016-12-17T08:56:08.462Z,1.54
2016-12-17T08:57:08.476Z,1.58
2016-12-17T08:57:53.573Z,1.6
2016-12-17T08:58:53.591Z,1.54
2016-12-17T08:59:53.907Z,1.5
2016-12-17T09:00:53.619Z,1.58
2016-12-17T09:02:08.549Z,1.52
2016-12-17T09:02:53.647Z,1.41
2016-12-17T09:03:53.664Z,1.37
2016-12-17T09:04:53.679Z,1.29
2016-12-17T09:06:53.709Z,1.23
2016-12-17T09:08:53.737Z,1.2
2016-12-17T09:09:53.751Z,1.2
2016-12-17T09:10:53.768Z,1.34
2016-12-17T09:11:53.830Z,1.34
2016-12-17T09:13:08.712Z,1.32
2016-12-17T09:13:53.810Z,1.27
2016-12-17T09:14:53.828Z,1.33
2016-12-17T09:15:53.838Z,1.3
2016-12-17T09:16:53.856Z,1.41
2016-12-17T09:18:08.788Z,1.3
2016-12-17T09:18:53.883Z,1.34
2016-12-17T09:19:53.897Z,1.32
2016-12-17T09:20:53.942Z,1.29
2016-12-17T09:21:53.930Z,1.33
2016-12-17T09:22:53.942Z,1.45
2016-12-17T09:23:53.964Z,1.41
2016-12-17T09:24:53.971Z,1.44
2016-12-17T09:25:53.988Z,1.5
2016-12-17T09:26:54.000Z,1.55
2016-12-17T09:27:54.017Z,1.58
2016-12-17T09:28:54.065Z,1.52
2016-12-17T09:29:54.045Z,1.59
2016-12-17T09:30:54.059Z,1.45
2016-12-17T09:31:54.079Z,1.54
2016-12-17T09:32:54.095Z,1.5
2016-12-17T09:34:09.022Z,1.6
2016-12-17T09:34:54.124Z,1.63
2016-12-17T09:35:54.138Z,1.66
2016-12-17T09:36:54.150Z,1.76
2016-12-17T09:37:54.168Z,1.58
2016-12-17T09:38:54.179Z,1.6
2016-12-17T09:39:54.196Z,1.45
2016-12-17T09:40:54.211Z,1.51
2016-12-17T09:41:54.224Z,1.54
2016-12-17T09:42:54.287Z,1.55
2016-12-17T09:43:54.253Z,1.58
2016-12-17T09:45:09.186Z,1.59
2016-12-17T09:45:54.283Z,1.6
2016-12-17T09:46:54.297Z,1.62
2016-12-17T09:47:54.312Z,1.6
2016-12-17T09:48:54.325Z,1.41
2016-12-17T09:50:09.260Z,1.48
2016-12-17T09:50:54.356Z,1.42
2016-12-17T09:51:54.373Z,1.41
2016-12-17T09:52:54.385Z,1.4
2016-12-17T09:53:54.403Z,1.4
2016-12-17T09:54:54.419Z,1.36
2016-12-17T09:55:54.436Z,1.24
2016-12-17T09:56:54.447Z,1.26
2016-12-17T09:57:54.466Z,1.06
2016-12-17T09:58:54.487Z,1.14
2016-12-17T09:59:54.495Z,1.2
2016-12-17T10:00:54.506Z,1.09
2016-12-17T10:01:54.520Z,1.14
2016-12-17T10:02:54.541Z,1.06
2016-12-17T10:03:54.552Z,1.15
2016-12-17T10:05:09.485Z,1.12
2016-12-17T10:05:54.582Z,1.16
2016-12-17T10:06:54.596Z,1.27
2016-12-17T10:07:54.610Z,1.36
2016-12-17T10:08:54.627Z,1.3
2016-12-17T10:09:54.641Z,1.45
2016-12-17T10:10:54.655Z,1.4
2016-12-17T10:12:54.686Z,1.32
2016-12-17T10:13:54.698Z,1.37
2016-12-17T10:14:54.763Z,1.44
2016-12-17T10:15:54.730Z,1.37
2016-12-17T10:16:54.743Z,1.4
2016-12-17T10:17:54.759Z,1.5
2016-12-17T10:18:54.877Z,1.44
2016-12-17T10:19:54.789Z,1.37
2016-12-17T10:20:54.853Z,1.34
2016-12-17T10:21:54.830Z,1.48
2016-12-17T10:22:54.837Z,1.54
2016-12-17T10:23:54.848Z,1.68
2016-12-17T10:24:54.862Z,1.6
2016-12-17T10:25:54.878Z,1.58
2016-12-17T10:27:54.908Z,1.62
2016-12-17T10:29:54.941Z,1.58
2016-12-17T10:30:54.953Z,1.58
2016-12-17T10:31:54.972Z,1.42
2016-12-17T10:33:09.900Z,1.58
2016-12-17T10:33:55.303Z,1.62
2016-12-17T10:34:55.065Z,1.68
2016-12-17T10:35:55.029Z,1.58
2016-12-17T10:37:09.959Z,1.45
2016-12-17T10:37:55.059Z,1.5
2016-12-17T10:38:55.073Z,1.34
2016-12-17T10:39:55.085Z,1.34
2016-12-17T10:40:55.102Z,1.42
2016-12-17T10:41:55.116Z,1.44
2016-12-17T10:42:55.136Z,1.36
2016-12-17T10:44:55.165Z,1.44
2016-12-17T10:45:55.180Z,1.44
2016-12-17T10:46:55.191Z,1.54
2016-12-17T10:47:55.207Z,1.55
2016-12-17T10:49:10.139Z,1.52
2016-12-17T10:49:55.242Z,1.51
2016-12-17T10:50:55.250Z,1.63
2016-12-17T10:51:55.268Z,1.7
2016-12-17T10:53:10.199Z,1.59
2016-12-17T10:53:55.299Z,1.55
2016-12-17T10:55:55.327Z,1.66
2016-12-17T10:56:55.346Z,1.62
2016-12-17T10:57:55.356Z,1.59
2016-12-17T10:58:55.371Z,1.54
2016-12-17T10:59:55.388Z,1.58
2016-12-17T11:01:55.416Z,1.6
2016-12-17T11:02:55.431Z,1.5
2016-12-17T11:04:10.364Z,1.41
2016-12-17T11:04:55.463Z,1.42
2016-12-17T11:06:10.393Z,1.48
2016-12-17T11:06:55.495Z,1.47
2016-12-17T11:07:55.507Z,1.45
2016-12-17T11:09:10.445Z,1.48
2016-12-17T11:09:55.545Z,1.45
2016-12-17T11:10:55.551Z,1.41
2016-12-17T11:11:55.570Z,1.63
2016-12-17T11:12:55.580Z,1.58
2016-12-17T11:13:55.601Z,1.59
2016-12-17T11:15:55.625Z,1.58
2016-12-17T11:16:55.642Z,1.6
2016-12-17T11:17:55.656Z,1.66
2016-12-17T11:18:55.676Z,1.7
2016-12-17T11:19:55.685Z,1.83
2016-12-17T11:20:55.708Z,1.76
2016-12-17T11:21:55.715Z,1.66
2016-12-17T11:22:55.733Z,1.6
2016-12-17T11:23:55.749Z,1.73
2016-12-17T11:25:10.983Z,1.84
2016-12-17T11:25:55.776Z,1.81
2016-12-17T11:26:55.812Z,1.88
2016-12-17T11:27:55.808Z,2.03
2016-12-17T11:28:55.823Z,2.02
2016-12-17T11:29:55.837Z,1.99
2016-12-17T11:31:55.869Z,1.91
2016-12-17T11:32:55.883Z,1.99
2016-12-17T11:33:55.899Z,2.07
2016-12-17T11:34:55.912Z,1.98
2016-12-17T11:35:55.934Z,2.02
2016-12-17T11:36:55.944Z,2.03
2016-12-17T11:37:55.958Z,1.91
2016-12-17T11:38:55.979Z,1.98
2016-12-17T11:40:10.910Z,1.93
2016-12-17T11:40:56.007Z,2.03
2016-12-17T11:41:56.022Z,1.99
2016-12-17T11:42:56.038Z,1.84
2016-12-17T11:43:56.054Z,2.02
2016-12-17T11:44:56.066Z,2.14
2016-12-17T11:45:56.088Z,2.12
2016-12-17T11:46:56.099Z,2.14
2016-12-17T11:48:11.081Z,2.03
2016-12-17T11:48:56.125Z,1.98
2016-12-17T11:49:56.141Z,1.98
2016-12-17T11:50:56.461Z,1.95
2016-12-17T11:51:56.173Z,1.99
2016-12-17T11:52:56.189Z,2.16
2016-12-17T11:53:56.202Z,2.17
2016-12-17T11:54:56.221Z,2.02
2016-12-17T11:55:56.233Z,1.8
2016-12-17T11:56:56.273Z,1.9
2016-12-17T11:57:56.564Z,1.98
2016-12-17T11:58:56.287Z,1.98
2016-12-17T11:59:56.302Z,2.09
2016-12-17T12:00:56.311Z,2.14
2016-12-17T12:01:56.328Z,2.06
2016-12-17T12:02:56.392Z,2
2016-12-17T12:03:56.356Z,1.81
2016-12-17T12:04:56.371Z,1.79
2016-12-17T12:05:56.387Z,1.79
2016-12-17T12:06:56.400Z,1.87
2016-12-17T12:07:56.417Z,1.7
2016-12-17T12:08:56.432Z,1.7
2016-12-17T12:09:56.447Z,1.76
2016-12-17T12:10:56.463Z,1.62
2016-12-17T12:12:11.395Z,1.7
2016-12-17T12:12:56.492Z,1.86
2016-12-17T12:13:56.511Z,1.84
2016-12-17T12:14:56.522Z,1.72
2016-12-17T12:15:56.840Z,1.77
2016-12-17T12:16:56.553Z,1.76
2016-12-17T12:17:56.569Z,1.84
2016-12-17T12:18:56.588Z,1.8
2016-12-17T12:19:56.607Z,1.9
2016-12-17T12:20:56.624Z,1.95
2016-12-17T12:21:56.629Z,1.91
2016-12-17T12:23:11.562Z,2.09
2016-12-17T12:23:56.662Z,2.16
2016-12-17T12:24:56.674Z,2.16
2016-12-17T12:25:56.691Z,2.21
2016-12-17T12:26:56.708Z,2.18
2016-12-17T12:28:11.639Z,2.21
2016-12-17T12:28:56.737Z,2.28
2016-12-17T12:29:56.751Z,2.34
2016-12-17T12:30:56.766Z,2.18
2016-12-17T12:31:56.786Z,2.24
2016-12-17T12:32:56.800Z,2.28
2016-12-17T12:33:56.814Z,2.23
2016-12-17T12:34:56.828Z,2.24
2016-12-17T12:35:56.846Z,2.17
2016-12-17T12:36:56.862Z,2.2
2016-12-17T12:38:11.792Z,2.12
2016-12-17T12:38:56.892Z,2.2
2016-12-17T12:39:56.907Z,2.2
2016-12-17T12:40:56.923Z,2.16
2016-12-17T12:41:56.967Z,2.1
2016-12-17T12:42:56.952Z,2.16
2016-12-17T12:44:11.885Z,2.17
2016-12-17T12:44:56.981Z,2.12
2016-12-17T12:45:56.997Z,2.21
2016-12-17T12:46:57.014Z,2.25
2016-12-17T12:47:57.028Z,2.23
2016-12-17T12:48:57.042Z,2.17
2016-12-17T12:49:57.061Z,2.2
2016-12-17T12:50:57.075Z,2.2
2016-12-17T12:51:57.088Z,2.25
2016-12-17T12:52:57.105Z,2.27
2016-12-17T12:53:57.120Z,2.21
2016-12-17T12:55:12.053Z,2.24
2016-12-17T12:55:57.152Z,2.27
2016-12-17T12:56:57.170Z,2.25
2016-12-17T12:57:57.184Z,2.25
2016-12-17T12:58:57.195Z,2.21
2016-12-17T13:00:12.134Z,2.3
2016-12-17T13:00:57.228Z,2.35
2016-12-17T13:01:57.247Z,2.28
2016-12-17T13:02:57.257Z,2.31
2016-12-17T13:03:57.276Z,2.31
2016-12-17T13:04:57.294Z,2.36
2016-12-17T13:05:57.304Z,2.2
2016-12-17T13:06:57.319Z,2.23
2016-12-17T13:07:57.335Z,2.18
2016-12-17T13:08:57.350Z,2.12
2016-12-17T13:09:57.372Z,2.14
2016-12-17T13:10:57.688Z,2.09
2016-12-17T13:11:57.403Z,2.12
2016-12-17T13:12:57.412Z,2.07
2016-12-17T13:13:57.428Z,2.12
2016-12-17T13:15:12.362Z,2
2016-12-17T13:15:57.774Z,2
2016-12-17T13:16:57.478Z,2.14
2016-12-17T13:17:57.494Z,2.1
2016-12-17T13:18:57.512Z,2.18
2016-12-17T13:19:57.573Z,2.18
2016-12-17T13:21:57.557Z,2.2
2016-12-17T13:22:57.568Z,2.24
2016-12-17T13:23:57.583Z,2.24
2016-12-17T13:24:57.601Z,2.3
2016-12-17T13:27:12.547Z,2.31
2016-12-17T13:28:12.562Z,2.3
2016-12-17T13:28:57.659Z,2.34
2016-12-17T13:29:57.680Z,2.34
2016-12-17T13:30:57.692Z,2.3
2016-12-17T13:31:57.706Z,2.2
2016-12-17T13:32:57.727Z,2.23
2016-12-17T13:33:57.741Z,2.25
2016-12-17T13:34:57.753Z,2.2
2016-12-17T13:35:57.769Z,2.16
2016-12-17T13:36:57.787Z,2.1
2016-12-17T13:37:57.800Z,2.06
2016-12-17T13:38:57.815Z,2.09
2016-12-17T13:39:57.831Z,2
2016-12-17T13:41:12.765Z,2.02
2016-12-17T13:41:57.864Z,2.06
2016-12-17T13:42:57.875Z,2.1
2016-12-17T13:43:57.892Z,2.14
2016-12-17T13:44:57.907Z,2.03
2016-12-17T13:45:57.926Z,2
2016-12-17T13:47:12.858Z,2.14
2016-12-17T13:47:57.953Z,2.1
2016-12-17T13:48:57.968Z,2.06
2016-12-17T13:49:57.985Z,2.1
2016-12-17T13:50:58.306Z,2
2016-12-17T13:51:58.019Z,2.03
2016-12-17T13:52:58.033Z,2.05
2016-12-17T13:53:58.044Z,2.09
2016-12-17T13:54:58.061Z,2.06
2016-12-17T13:55:58.076Z,2.14
2016-12-17T13:56:58.090Z,2.14
2016-12-17T13:57:58.108Z,2.09